Аэропорт: Оренбург-Центральный. Оренбург

ICAO: UWOO

METAR:
2019-12-12 11:00:00
UWOO 121100Z 35010MPS 9999 BKN019CB M04/M07 Q1019 R26/710147 NOSIG RMK QFE754/1005
METAR:
2019-12-12 10:35:00
TAF AMD UWOO 121035Z 1210/1309 34009G14MPS 5000 -SHSN BLSN BR BKN011 BKN015CB TXM04/1211Z TNM14/1303Z TEMPO 1210/1219 01011G17MPS 1200 SHSN BLSN BKN004 BKN013CB BECMG 1219/1220 36005G11MPS TEMPO 1220/1306 01003G09MPS 0400 FZFG VV002